createdAt,value
2019-01-19T00:01:44.734Z,55.37
2019-01-19T00:04:43.237Z,48.60
2019-01-19T00:07:26.807Z,47.37
2019-01-19T00:10:24.312Z,46.30
2019-01-19T00:13:22.825Z,47.50
2019-01-19T00:16:09.442Z,48.87
2019-01-19T00:18:58.876Z,48.73
2019-01-19T00:21:39.242Z,51.40
2019-01-19T00:24:31.983Z,50.33
2019-01-19T00:27:15.685Z,50.90
2019-01-19T00:29:56.034Z,51.87
2019-01-19T00:32:39.774Z,53.03
2019-01-19T00:35:17.727Z,60.00
2019-01-19T00:37:45.000Z,61.03
2019-01-19T00:40:45.073Z,53.10
2019-01-19T00:43:14.458Z,50.77
2019-01-19T00:45:48.988Z,52.17
2019-01-19T00:48:20.809Z,57.47
2019-01-19T00:50:55.213Z,54.43
2019-01-19T00:53:27.033Z,55.33
2019-01-19T00:56:21.207Z,60.13
2019-01-19T00:58:58.558Z,59.07
2019-01-19T01:01:39.111Z,63.60
2019-01-19T01:04:22.757Z,60.57
2019-01-19T01:07:08.997Z,53.87
2019-01-19T01:09:43.606Z,63.58
2019-01-19T01:12:21.876Z,57.07
2019-01-19T01:15:09.905Z,75.10
2019-01-19T01:17:40.361Z,63.53
2019-01-19T01:20:35.981Z,59.43
2019-01-19T01:23:07.794Z,65.30
2019-01-19T01:25:54.106Z,61.47
2019-01-19T01:28:34.396Z,59.40
2019-01-19T01:31:18.181Z,68.87
2019-01-19T01:34:19.788Z,66.83
2019-01-19T01:37:09.533Z,72.13
2019-01-19T01:39:47.349Z,63.97
2019-01-19T01:42:19.187Z,63.10
2019-01-19T01:44:59.572Z,61.87
2019-01-19T01:47:31.390Z,65.70
2019-01-19T01:50:08.822Z,62.20
2019-01-19T01:52:43.266Z,78.55
2019-01-19T01:55:17.777Z,72.70
2019-01-19T01:57:49.922Z,66.40
2019-01-19T02:00:24.729Z,66.20
2019-01-19T02:03:17.428Z,65.80
2019-01-19T02:05:49.194Z,63.57
2019-01-19T02:08:32.675Z,70.40
2019-01-19T02:11:16.351Z,64.93
2019-01-19T02:14:03.154Z,66.73
2019-01-19T02:16:40.472Z,58.00
2019-01-19T02:19:43.746Z,57.70
2019-01-19T02:22:16.735Z,56.67
2019-01-19T02:24:59.977Z,52.67
2019-01-19T02:27:52.300Z,57.03
2019-01-19T02:30:40.107Z,60.83
2019-01-19T02:33:32.392Z,55.80
2019-01-19T02:36:04.211Z,66.27
2019-01-19T02:39:02.887Z,69.80
2019-01-19T02:41:51.051Z,64.17
2019-01-19T02:44:35.869Z,70.90
2019-01-19T02:47:36.130Z,63.93
2019-01-19T02:50:22.699Z,57.27
2019-01-19T02:52:54.542Z,58.00
2019-01-19T02:55:38.759Z,61.90
2019-01-19T02:58:13.581Z,63.87
2019-01-19T03:04:05.687Z,51.10
2019-01-19T03:06:54.485Z,54.97
2019-01-19T03:09:29.181Z,52.97
2019-01-19T03:12:00.980Z,60.33
2019-01-19T03:14:50.743Z,58.60
2019-01-19T03:17:34.165Z,67.13
2019-01-19T03:20:22.460Z,69.20
2019-01-19T03:22:56.874Z,70.80
2019-01-19T03:25:44.918Z,60.30
2019-01-19T03:28:21.004Z,63.03
2019-01-19T03:31:07.748Z,66.40
2019-01-19T03:33:48.070Z,60.27
2019-01-19T03:36:52.814Z,64.33
2019-01-19T03:39:48.276Z,71.13
2019-01-19T03:42:29.048Z,76.67
2019-01-19T03:45:12.774Z,67.30
2019-01-19T03:47:53.324Z,68.53
2019-01-19T03:50:36.909Z,60.30
2019-01-19T03:53:23.968Z,53.97
2019-01-19T03:56:07.611Z,53.63
2019-01-19T03:58:45.020Z,57.37
2019-01-19T04:01:22.410Z,49.27
2019-01-19T04:03:57.058Z,47.30
2019-01-19T04:06:37.394Z,51.17
2019-01-19T04:09:34.535Z,52.27
2019-01-19T04:12:11.729Z,54.63
2019-01-19T04:15:05.742Z,53.57
2019-01-19T04:17:46.359Z,55.53
2019-01-19T04:20:38.821Z,62.07
2019-01-19T04:23:07.707Z,64.90
2019-01-19T04:25:42.736Z,61.00
2019-01-19T04:28:12.190Z,64.73
2019-01-19T04:30:40.866Z,72.40
2019-01-19T04:33:09.613Z,64.90
2019-01-19T04:35:38.320Z,78.43
2019-01-19T04:38:06.973Z,72.90
2019-01-19T04:40:35.794Z,78.37
2019-01-19T04:43:04.439Z,124.53
2019-01-19T04:45:33.094Z,117.83
2019-01-19T04:48:01.850Z,131.17
2019-01-19T04:50:30.463Z,126.87
2019-01-19T04:52:59.150Z,145.50
2019-01-19T04:55:27.974Z,129.70
2019-01-19T04:57:56.605Z,142.43
2019-01-19T05:00:25.251Z,144.83
2019-01-19T05:02:54.029Z,163.43
2019-01-19T05:05:22.704Z,182.67
2019-01-19T05:07:51.342Z,192.77
2019-01-19T05:10:20.046Z,192.37
2019-01-19T05:12:48.729Z,185.70
2019-01-19T05:15:18.659Z,205.50
2019-01-19T05:17:47.825Z,218.40
2019-01-19T05:20:16.508Z,249.50
2019-01-19T05:22:45.144Z,234.63
2019-01-19T05:25:14.185Z,248.90
2019-01-19T05:27:42.856Z,227.10
2019-01-19T05:30:16.818Z,235.40
2019-01-19T05:32:45.556Z,225.20
2019-01-19T05:35:17.710Z,207.50
2019-01-19T05:37:46.561Z,229.33
2019-01-19T05:40:15.243Z,210.27
2019-01-19T05:42:43.886Z,200.67
2019-01-19T05:45:14.056Z,178.77
2019-01-19T05:47:42.771Z,176.27
2019-01-19T05:50:16.926Z,146.57
2019-01-19T05:52:45.598Z,149.20
2019-01-19T05:55:14.330Z,154.77
2019-01-19T05:57:43.026Z,140.70
2019-01-19T06:00:14.636Z,128.33
2019-01-19T06:02:43.324Z,112.57
2019-01-19T06:05:11.949Z,120.33
2019-01-19T06:07:41.782Z,110.57
2019-01-19T06:10:13.206Z,107.60
2019-01-19T06:12:41.936Z,110.43
2019-01-19T06:15:13.450Z,114.73
2019-01-19T06:17:42.223Z,110.90
2019-01-19T06:20:13.240Z,114.77
2019-01-19T06:22:41.978Z,113.20
2019-01-19T06:25:16.522Z,107.43
2019-01-19T06:27:45.233Z,113.07
2019-01-19T06:30:21.555Z,109.47
2019-01-19T06:32:50.251Z,106.17
2019-01-19T06:35:18.910Z,116.10
2019-01-19T06:37:47.565Z,116.23
2019-01-19T06:40:17.809Z,125.80
2019-01-19T06:42:46.488Z,135.67
2019-01-19T06:45:22.790Z,120.10
2019-01-19T06:47:51.455Z,126.73
2019-01-19T06:50:20.087Z,126.67
2019-01-19T06:52:48.813Z,123.57
2019-01-19T06:55:24.983Z,114.73
2019-01-19T06:57:55.964Z,118.63
2019-01-19T07:00:24.647Z,104.27
2019-01-19T07:02:53.349Z,103.83
2019-01-19T07:05:22.045Z,103.90
2019-01-19T07:07:50.732Z,94.60
2019-01-19T07:10:21.928Z,92.90
2019-01-19T07:12:50.676Z,92.03
2019-01-19T07:15:20.934Z,82.33
2019-01-19T07:17:50.855Z,79.37
2019-01-19T07:20:28.238Z,78.00
2019-01-19T07:22:56.865Z,71.60
2019-01-19T07:26:33.774Z,70.90
2019-01-19T07:30:20.350Z,68.57
2019-01-19T07:31:17.510Z,67.80
2019-01-19T07:33:47.358Z,62.73
2019-01-19T07:36:16.624Z,62.10
2019-01-19T07:38:45.393Z,58.33
2019-01-19T07:41:14.046Z,55.50
2019-01-19T07:43:42.760Z,53.60
2019-01-19T07:46:13.310Z,55.00
2019-01-19T07:48:42.011Z,55.70
2019-01-19T07:51:12.379Z,48.00
2019-01-19T07:53:42.339Z,52.47
2019-01-19T07:56:11.205Z,51.43
2019-01-19T07:58:42.870Z,52.60
2019-01-19T08:01:11.666Z,51.70
2019-01-19T08:03:40.444Z,50.80
2019-01-19T08:06:09.131Z,51.47
2019-01-19T08:08:38.190Z,44.60
2019-01-19T08:11:06.893Z,49.07
2019-01-19T08:13:35.602Z,41.63
2019-01-19T08:16:04.377Z,42.67
2019-01-19T08:18:35.857Z,45.80
2019-01-19T08:21:04.527Z,46.88
2019-01-19T08:23:51.184Z,41.67
2019-01-19T08:26:35.135Z,39.87
2019-01-19T08:29:03.961Z,40.50
2019-01-19T08:31:32.628Z,41.63
2019-01-19T08:34:02.784Z,42.03
2019-01-19T08:36:31.496Z,48.20
2019-01-19T08:39:01.732Z,40.57
2019-01-19T08:41:30.474Z,39.97
2019-01-19T08:44:06.649Z,39.53
2019-01-19T08:46:35.454Z,38.20
2019-01-19T08:49:04.299Z,40.73
2019-01-19T08:51:33.008Z,40.87
2019-01-19T08:54:03.278Z,37.53
2019-01-19T08:56:33.856Z,37.73
2019-01-19T08:59:05.325Z,31.53
2019-01-19T09:01:38.635Z,29.30
2019-01-19T09:04:07.380Z,27.53
2019-01-19T09:06:37.046Z,24.17
2019-01-19T09:09:09.997Z,25.13
2019-01-19T09:11:40.779Z,23.30
2019-01-19T09:14:13.549Z,22.70
2019-01-19T09:16:42.218Z,20.72
2019-01-19T09:19:10.969Z,19.10
2019-01-19T09:21:39.709Z,16.77
2019-01-19T09:24:08.916Z,16.30
2019-01-19T09:26:37.548Z,17.57
2019-01-19T09:29:08.016Z,14.77
2019-01-19T09:31:36.702Z,15.93
2019-01-19T09:34:06.924Z,15.87
2019-01-19T09:36:37.416Z,14.70
2019-01-19T09:39:12.128Z,13.90
2019-01-19T09:41:41.007Z,13.10
2019-01-19T09:44:09.687Z,16.53
2019-01-19T09:55:13.657Z,14.00
2019-01-19T09:57:42.297Z,12.80
2019-01-19T10:00:19.595Z,12.00
2019-01-19T10:02:48.319Z,12.83
2019-01-19T10:05:19.473Z,13.83
2019-01-19T10:07:48.749Z,12.50
2019-01-19T10:10:17.578Z,11.37
2019-01-19T10:12:46.250Z,12.07
2019-01-19T10:15:16.724Z,11.03
2019-01-19T10:17:45.408Z,11.13
2019-01-19T10:20:28.477Z,12.10
2019-01-19T10:22:57.356Z,13.07
2019-01-19T10:25:26.387Z,11.80
2019-01-19T10:27:55.226Z,12.10
2019-01-19T10:30:28.685Z,11.90
2019-01-19T10:32:57.385Z,12.77
2019-01-19T10:35:26.153Z,9.00
2019-01-19T10:37:56.599Z,9.73
2019-01-19T10:40:25.051Z,8.10
2019-01-19T10:42:53.784Z,8.30
2019-01-19T10:45:27.100Z,8.73
2019-01-19T10:47:55.805Z,8.80
2019-01-19T10:50:24.441Z,8.07
2019-01-19T10:52:53.115Z,7.93
2019-01-19T10:58:12.909Z,8.60
2019-01-19T11:03:30.635Z,9.20
2019-01-19T11:05:59.324Z,9.53
2019-01-19T11:08:33.089Z,10.60
2019-01-19T11:11:01.788Z,9.90
2019-01-19T11:13:30.487Z,9.77
2019-01-19T11:16:03.096Z,7.40
2019-01-19T11:18:31.900Z,7.20
2019-01-19T11:21:00.592Z,7.80
2019-01-19T11:23:29.234Z,9.57
2019-01-19T11:25:57.973Z,7.30
2019-01-19T11:28:26.845Z,7.43
2019-01-19T11:30:56.029Z,7.67
2019-01-19T11:33:25.458Z,7.60
2019-01-19T11:35:55.046Z,10.50
2019-01-19T11:38:23.733Z,9.33
2019-01-19T11:40:53.646Z,9.23
2019-01-19T11:43:23.929Z,7.00
2019-01-19T11:45:53.066Z,5.67
2019-01-19T11:48:21.737Z,5.87
2019-01-19T11:50:51.966Z,6.63
2019-01-19T11:53:20.642Z,4.50
2019-01-19T11:55:49.356Z,5.63
2019-01-19T11:58:18.021Z,7.20
2019-01-19T12:00:46.667Z,6.33
2019-01-19T12:03:18.337Z,7.17
2019-01-19T12:05:46.991Z,7.67
2019-01-19T12:08:19.812Z,7.30
2019-01-19T12:10:46.132Z,6.03
2019-01-19T12:13:14.852Z,7.10
2019-01-19T12:15:43.526Z,5.67
2019-01-19T12:18:12.335Z,5.77
2019-01-19T12:20:42.812Z,5.43
2019-01-19T12:23:11.479Z,5.97
2019-01-19T12:25:47.365Z,5.87
2019-01-19T12:28:16.036Z,6.45
2019-01-19T12:30:44.769Z,7.43
2019-01-19T12:33:14.856Z,6.97
2019-01-19T12:35:43.558Z,7.63
2019-01-19T12:38:12.278Z,6.10
2019-01-19T12:40:41.020Z,7.00
2019-01-19T12:43:20.305Z,5.17
2019-01-19T12:45:51.424Z,4.97
2019-01-19T12:48:20.110Z,6.40
2019-01-19T12:50:48.800Z,6.93
2019-01-19T12:53:17.618Z,8.87
2019-01-19T12:55:46.292Z,9.67
2019-01-19T12:58:15.042Z,9.27
2019-01-19T13:00:43.716Z,6.77
2019-01-19T13:03:12.368Z,5.93
2019-01-19T13:05:52.846Z,7.25
2019-01-19T13:08:34.166Z,5.77
2019-01-19T13:11:19.996Z,6.33
2019-01-19T13:13:48.766Z,7.40
2019-01-19T13:16:26.665Z,7.13
2019-01-19T13:19:07.189Z,6.27
2019-01-19T13:21:58.501Z,6.77
2019-01-19T13:24:48.187Z,8.63
2019-01-19T13:27:28.890Z,6.70
2019-01-19T13:30:25.948Z,7.87
2019-01-19T13:33:10.053Z,10.83
2019-01-19T13:35:53.409Z,8.57
2019-01-19T13:38:34.270Z,9.80
2019-01-19T13:41:40.560Z,9.10
2019-01-19T13:44:27.117Z,7.00
2019-01-19T13:47:16.549Z,6.73
2019-01-19T13:50:07.573Z,5.37
2019-01-19T13:52:55.473Z,7.20
2019-01-19T13:55:36.651Z,6.33
2019-01-19T13:58:20.565Z,6.80
2019-01-19T14:01:11.673Z,7.83
2019-01-19T14:03:48.905Z,10.97
2019-01-19T14:06:29.555Z,6.13
2019-01-19T14:09:20.769Z,7.90
2019-01-19T14:12:01.415Z,6.30
2019-01-19T14:14:44.826Z,6.77
2019-01-19T14:17:19.610Z,8.03
2019-01-19T14:20:03.126Z,7.70
2019-01-19T14:22:35.702Z,19.90
2019-01-19T14:25:16.158Z,13.00
2019-01-19T14:27:56.691Z,7.43
2019-01-19T14:30:40.360Z,8.73
2019-01-19T14:33:14.768Z,7.20
2019-01-19T14:35:52.334Z,7.27
2019-01-19T14:38:39.353Z,9.10
2019-01-19T14:41:32.005Z,7.33
2019-01-19T14:44:03.842Z,7.80
2019-01-19T14:46:44.021Z,7.33
2019-01-19T14:49:30.499Z,6.67
2019-01-19T14:52:26.172Z,10.17
2019-01-19T14:54:57.991Z,8.47
2019-01-19T14:57:32.254Z,10.27
2019-01-19T15:00:18.960Z,9.53
2019-01-19T15:03:06.925Z,8.73
2019-01-19T15:05:41.338Z,9.23
2019-01-19T15:08:15.990Z,10.20
2019-01-19T15:10:53.516Z,9.87
2019-01-19T15:13:30.819Z,9.33
2019-01-19T15:16:17.817Z,8.60
2019-01-19T15:19:10.653Z,10.00
2019-01-19T15:21:44.985Z,8.17
2019-01-19T15:24:28.399Z,11.80
2019-01-19T15:27:25.744Z,21.03
2019-01-19T15:30:03.247Z,16.63
2019-01-19T15:32:55.852Z,11.07
2019-01-19T15:35:39.165Z,9.63
2019-01-19T15:38:27.444Z,10.50
2019-01-19T15:41:24.719Z,13.53
2019-01-19T15:44:02.222Z,10.47
2019-01-19T15:46:54.831Z,13.03
2019-01-19T15:49:42.967Z,11.33
2019-01-19T15:52:26.615Z,16.30
2019-01-19T15:54:58.440Z,12.27
2019-01-19T15:57:35.823Z,12.03
2019-01-19T16:00:22.706Z,8.53
2019-01-19T16:03:00.558Z,8.13
2019-01-19T16:05:41.274Z,9.43
2019-01-19T16:08:33.844Z,11.10
2019-01-19T16:11:08.771Z,11.40
2019-01-19T16:13:43.432Z,12.43
2019-01-19T16:16:17.909Z,16.27
2019-01-19T16:18:52.664Z,17.03
2019-01-19T16:21:36.195Z,21.73
2019-01-19T16:24:16.787Z,21.33
2019-01-19T16:27:12.266Z,24.67
2019-01-19T16:30:03.164Z,27.43
2019-01-19T16:32:49.934Z,31.27
2019-01-19T16:35:27.233Z,32.33
2019-01-19T16:38:21.489Z,34.20
2019-01-19T16:41:13.675Z,27.00
2019-01-19T16:43:51.298Z,29.13
2019-01-19T16:46:28.848Z,26.70
2019-01-19T16:49:13.022Z,21.07
2019-01-19T16:51:47.573Z,18.43
2019-01-19T16:54:22.632Z,25.23
2019-01-19T16:57:21.260Z,26.37
2019-01-19T16:59:56.851Z,27.62
2019-01-19T17:02:37.219Z,29.30
2019-01-19T17:05:17.841Z,30.27
2019-01-19T17:08:06.171Z,29.93
2019-01-19T17:10:52.728Z,25.47
2019-01-19T17:13:45.514Z,27.77
2019-01-19T17:16:29.174Z,22.87
2019-01-19T17:19:06.884Z,25.53
2019-01-19T17:22:45.558Z,27.97
2019-01-19T17:25:00.654Z,31.30
2019-01-19T17:28:00.118Z,23.83
2019-01-19T17:30:40.841Z,26.00
2019-01-19T17:33:27.561Z,23.77
2019-01-19T17:36:11.819Z,27.53
2019-01-19T17:39:11.294Z,29.83
2019-01-19T17:41:58.651Z,30.33
2019-01-19T17:44:40.330Z,26.13
2019-01-19T17:47:20.888Z,32.23
2019-01-19T17:50:07.322Z,32.53
2019-01-19T17:52:47.639Z,28.77
2019-01-19T17:55:43.244Z,26.53
2019-01-19T17:58:20.558Z,26.20
2019-01-19T18:00:58.085Z,21.97
2019-01-19T18:03:57.115Z,21.20
2019-01-19T18:06:28.929Z,21.73
2019-01-19T18:09:00.757Z,31.07
2019-01-19T18:11:38.329Z,27.63
2019-01-19T18:14:18.141Z,35.47
2019-01-19T18:16:50.038Z,39.00
2019-01-19T18:19:36.583Z,41.40
2019-01-19T18:22:26.196Z,40.87
2019-01-19T18:25:00.693Z,45.03
2019-01-19T18:27:48.987Z,45.17
2019-01-19T18:30:37.664Z,43.60
2019-01-19T18:33:34.867Z,37.07
2019-01-19T18:36:21.746Z,32.67
2019-01-19T18:39:06.801Z,36.40
2019-01-19T18:41:56.601Z,25.67
2019-01-19T18:44:45.115Z,21.77
2019-01-19T18:47:21.149Z,28.80
2019-01-19T18:50:07.928Z,40.77
2019-01-19T18:52:51.425Z,26.23
2019-01-19T18:55:37.843Z,27.23
2019-01-19T18:58:32.179Z,21.60
2019-01-19T19:01:23.348Z,22.37
2019-01-19T19:04:02.397Z,21.03
2019-01-19T19:06:50.806Z,28.93
2019-01-19T19:09:25.435Z,27.57
2019-01-19T19:12:12.384Z,24.33
2019-01-19T19:14:59.216Z,22.47
2019-01-19T19:17:50.816Z,23.80
2019-01-19T19:20:39.402Z,24.93
2019-01-19T19:23:13.496Z,38.10
2019-01-19T19:25:47.815Z,38.07
2019-01-19T19:28:39.519Z,34.20
2019-01-19T19:31:11.492Z,36.40
2019-01-19T19:34:02.199Z,34.40
2019-01-19T19:36:51.824Z,36.33
2019-01-19T19:39:40.403Z,34.80
2019-01-19T19:42:22.356Z,35.83
2019-01-19T19:45:10.699Z,40.17
2019-01-19T19:48:03.211Z,37.20
2019-01-19T19:50:35.033Z,37.00
2019-01-19T19:53:03.703Z,41.80
2019-01-19T19:55:31.389Z,41.33
2019-01-19T19:58:00.145Z,40.97
2019-01-19T20:00:29.059Z,35.00
2019-01-19T20:02:57.816Z,43.40
2019-01-19T20:05:26.617Z,43.63
2019-01-19T20:07:57.870Z,43.83
2019-01-19T20:10:26.568Z,43.80
2019-01-19T20:12:55.347Z,51.00
2019-01-19T20:15:24.033Z,56.13
2019-01-19T20:17:54.236Z,48.70
2019-01-19T20:20:22.970Z,60.60
2019-01-19T20:22:51.740Z,49.67
2019-01-19T20:25:30.617Z,59.97
2019-01-19T20:27:51.437Z,70.80
2019-01-19T20:30:20.068Z,59.20
2019-01-19T20:32:48.752Z,67.97
2019-01-19T20:35:18.445Z,61.87
2019-01-19T20:37:47.234Z,56.58
2019-01-19T20:40:24.075Z,55.40
2019-01-19T20:42:46.276Z,50.73
2019-01-19T20:45:15.193Z,55.70
2019-01-19T20:47:44.010Z,62.47
2019-01-19T20:50:15.929Z,74.90
2019-01-19T20:52:44.672Z,66.23
2019-01-19T20:55:13.421Z,63.67
2019-01-19T20:57:42.127Z,74.00
2019-01-19T21:00:15.302Z,65.00
2019-01-19T21:02:44.991Z,68.17
2019-01-19T21:05:13.749Z,60.00
2019-01-19T21:07:42.534Z,66.97
2019-01-19T21:10:11.215Z,70.03
2019-01-19T21:12:39.954Z,67.47
2019-01-19T21:15:11.899Z,68.50
2019-01-19T21:17:40.630Z,70.97
2019-01-19T21:20:12.683Z,78.90
2019-01-19T21:22:41.295Z,78.00
2019-01-19T21:25:11.479Z,80.13
2019-01-19T21:27:40.145Z,74.50
2019-01-19T21:30:11.621Z,94.30
2019-01-19T21:32:46.462Z,77.17
2019-01-19T21:35:15.173Z,114.17
2019-01-19T21:37:43.864Z,116.73
2019-01-19T21:40:14.003Z,134.93
2019-01-19T21:42:42.663Z,113.13
2019-01-19T21:45:17.159Z,111.70
2019-01-19T21:47:45.840Z,115.30
2019-01-19T21:50:15.565Z,99.97
2019-01-19T21:52:48.705Z,107.07
2019-01-19T21:55:17.396Z,116.30
2019-01-19T21:57:46.189Z,130.63
2019-01-19T22:00:22.401Z,121.77
2019-01-19T22:02:51.079Z,123.30
2019-01-19T22:05:21.389Z,123.13
2019-01-19T22:07:50.219Z,121.17
2019-01-19T22:10:20.561Z,127.83
2019-01-19T22:12:49.206Z,127.23
2019-01-19T22:15:18.812Z,128.33
2019-01-19T22:17:47.501Z,123.17
2019-01-19T22:20:19.661Z,136.37
2019-01-19T22:22:51.475Z,132.67
2019-01-19T22:25:20.173Z,125.60
2019-01-19T22:27:52.054Z,133.27
2019-01-19T22:30:23.169Z,132.80
2019-01-19T22:32:53.458Z,157.85
2019-01-19T22:35:26.906Z,153.43
2019-01-19T22:37:55.565Z,147.63
2019-01-19T22:40:24.386Z,139.33
2019-01-19T22:42:54.198Z,143.77
2019-01-19T22:45:22.878Z,146.70
2019-01-19T22:47:52.776Z,127.47
2019-01-19T22:50:21.530Z,125.87
2019-01-19T22:52:50.325Z,107.57
2019-01-19T22:55:19.000Z,104.13
2019-01-19T22:57:47.717Z,91.33
2019-01-19T23:00:45.126Z,100.27
2019-01-19T23:03:13.954Z,87.10
2019-01-19T23:05:42.620Z,82.83
2019-01-19T23:08:11.327Z,84.63
2019-01-19T23:10:40.022Z,95.33
2019-01-19T23:13:08.734Z,75.97
2019-01-19T23:15:37.386Z,91.13
2019-01-19T23:18:06.086Z,84.03
2019-01-19T23:20:34.772Z,95.50
2019-01-19T23:23:03.528Z,90.50
2019-01-19T23:25:32.302Z,80.50
2019-01-19T23:28:01.061Z,93.30
2019-01-19T23:30:29.742Z,82.33
2019-01-19T23:32:58.449Z,79.30
2019-01-19T23:35:27.718Z,83.47
2019-01-19T23:37:56.387Z,82.93
2019-01-19T23:40:25.144Z,76.93
2019-01-19T23:42:53.811Z,75.60
2019-01-19T23:45:22.494Z,81.90
2019-01-19T23:47:51.334Z,81.27
2019-01-19T23:50:19.983Z,73.20
2019-01-19T23:52:48.703Z,90.23
2019-01-19T23:55:17.461Z,93.30
2019-01-19T23:57:46.118Z,91.73
